Rossini — 9HA3643 — position and weather

sailwx.info

Track history (hours):
 
Tides and Currents Weather Stations Pressure Air Temp Water Temp Dewpoint Dewpoint Depression Visibility Wind Speed Wind Dir Waves Ship Positions

Rossini

Last reported at 2017-Nov-11 14:05 UTC. Time now 2017-Nov-21 01:06 UTC.
Position N 24°33' W 017°02'.
Warning: this ship's position is 9 days out of date.

Length 207 m; draft 10.6 m.

Type: Ship (hazmat cat C). MMSI: 229824000.

Date/timePositionNaut miles runAvg speedWind from/ knotsBaromVisibWave heightAir tempDewpointWater temp
2017-Nov-11 14:05N 24°33' W 017°02'512.2
2017-Nov-11 13:43N 24°37' W 016°59'312.5
2017-Nov-11 13:30N 24°38' W 016°57'712.5
2017-Nov-11 12:58N 24°44' W 016°52'712.6
2017-Nov-11 12:27N 24°49' W 016°48'613.3
2017-Nov-11 11:59N 24°53' W 016°44'613.0
2017-Nov-11 11:31N 24°58' W 016°39'1912.6
2017-Nov-11 10:01N 25°12' W 016°25'011.9
2017-Nov-11 09:59N 25°12' W 016°25'612.7
2017-Nov-11 09:30N 25°17' W 016°20'1012.9
2017-Nov-11 08:44N 25°24' W 016°13'312.8
2017-Nov-11 08:29N 25°26' W 016°10'712.5
2017-Nov-11 07:53N 25°32' W 016°05'612.7
2017-Nov-11 07:26N 25°36' W 016°01'613.0
2017-Nov-11 07:00N 25°40' W 015°56'2012.6
2017-Nov-11 05:24N 25°55' W 015°41'512.5
2017-Nov-11 04:59N 25°59' W 015°37'612.6
2017-Nov-11 04:30N 26°03' W 015°32'612.7
2017-Nov-11 04:00N 26°08' W 015°28'712.7
2017-Nov-11 03:30N 26°13' W 015°23'612.9
2017-Nov-11 03:00N 26°17' W 015°18'612.7
2017-Nov-11 02:30N 26°22' W 015°13'612.7
2017-Nov-11 02:00N 26°27' W 015°08'812.6
2017-Nov-11 01:25N 26°32' W 015°03'512.4
2017-Nov-11 00:59N 26°36' W 014°58'612.4
2017-Nov-11 00:30N 26°40' W 014°54'612.4
2017-Nov-11 00:00N 26°45' W 014°49'712.4
2017-Nov-10 23:28N 26°50' W 014°44'612.4
2017-Nov-10 22:59N 26°54' W 014°40'612.6
2017-Nov-10 22:30N 26°59' W 014°35'612.6
2017-Nov-10 22:00N 27°03' W 014°30'612.6
2017-Nov-10 21:30N 27°08' W 014°26'612.6
2017-Nov-10 21:00N 27°13' W 014°21'612.5
2017-Nov-10 20:30N 27°17' W 014°16'612.4
2017-Nov-10 20:00N 27°22' W 014°11'713.0
2017-Nov-10 19:30N 27°27' W 014°07'713.4
2017-Nov-10 19:00N 27°32' W 014°02'713.2
2017-Nov-10 18:30N 27°37' W 013°57'713.4
2017-Nov-10 18:00N 27°42' W 013°52'713.2
2017-Nov-10 17:30N 27°46' W 013°46'613.0
2017-Nov-10 17:00N 27°51' W 013°41'613.0
2017-Nov-10 16:30N 27°56' W 013°36'612.9
2017-Nov-10 16:00N 28°01' W 013°32'612.7
2017-Nov-10 15:30N 28°06' W 013°27'612.6
2017-Nov-10 15:00N 28°11' W 013°23'712.4
2017-Nov-10 14:29N 28°17' W 013°20'712.7
2017-Nov-10 13:58N 28°22' W 013°16'612.9
2017-Nov-10 13:30N 28°27' W 013°12'612.8
2017-Nov-10 13:00N 28°32' W 013°08'612.9
2017-Nov-10 12:30N 28°38' W 013°04'612.8
2017-Nov-10 12:00N 28°43' W 013°00'612.7
2017-Nov-10 11:30N 28°49' W 012°56'812.2
2017-Nov-10 10:52N 28°55' W 012°51'612.4
2017-Nov-10 10:24N 28°60' W 012°47'512.4
2017-Nov-10 10:00N 29°04' W 012°44'812.5
2017-Nov-10 09:24N 29°11' W 012°40'512.3
2017-Nov-10 09:00N 29°15' W 012°37'612.6
2017-Nov-10 08:30N 29°20' W 012°33'713.1
2017-Nov-10 08:00N 29°25' W 012°29'919.0
2017-Nov-10 07:30N 29°33' W 012°23'917.4
2017-Nov-10 07:00N 29°40' W 012°17'1513.3
2017-Nov-10 05:53N 29°53' W 012°08'3413.0
2017-Nov-10 03:16N 30°21' W 011°46'412.6
2017-Nov-10 02:58N 30°25' W 011°44'913.0
2017-Nov-10 02:14N 30°32' W 011°38'313.2
2017-Nov-10 02:00N 30°35' W 011°35'613.2
2017-Nov-10 01:30N 30°40' W 011°31'1513.4
2017-Nov-10 00:23N 30°53' W 011°22'1313.5
2017-Nov-09 23:24N 31°04' W 011°14'8613.2
2017-Nov-09 16:54N 32°16' W 010°20'612.7
2017-Nov-09 16:24N 32°22' W 010°15'512.8
2017-Nov-09 16:00N 32°26' W 010°12'325 6.9
2017-Nov-07 16:55N 36°05' W 005°22'2210.3
2017-Nov-07 14:47N 36°08' W 004°55'410.4
2017-Nov-07 14:27N 36°09' W 004°51'1 2.8
2017-Nov-07 14:00N 36°09' W 004°49'4 6.7
2017-Nov-07 13:24N 36°10' W 004°44'0 0.7
2017-Nov-07 12:59N 36°10' W 004°45'1 0.8
2017-Nov-07 11:58N 36°10' W 004°46'0 0.9
2017-Nov-07 11:30N 36°10' W 004°46'1 1.0
2017-Nov-07 11:00N 36°10' W 004°47'1 1.1
2017-Nov-07 10:30N 36°10' W 004°48'1 1.3
2017-Nov-07 10:00N 36°10' W 004°48'1 1.5
2017-Nov-07 09:30N 36°10' W 004°49'1 1.6
2017-Nov-07 08:51N 36°11' W 004°50'1 1.6
2017-Nov-07 08:30N 36°11' W 004°51'1 1.6
2017-Nov-07 08:00N 36°11' W 004°52'1 1.7
2017-Nov-07 07:30N 36°11' W 004°53'1 1.8
2017-Nov-07 07:00N 36°11' W 004°54'1 1.6
2017-Nov-07 06:30N 36°11' W 004°55'1 1.3
2017-Nov-07 06:00N 36°11' W 004°56'1 1.1
2017-Nov-07 05:30N 36°11' W 004°57'  
2017-Nov-04 20:10N 36°01' W 005°15'214.1
2017-Nov-04 20:01N 36°00' W 005°18'  
2017-Nov-02 05:18N 28°41' W 013°02'2810.5
2017-Nov-02 02:39N 28°18' W 013°19'1210.7
2017-Nov-02 01:30N 28°07' W 013°27'610.7
2017-Nov-02 00:53N 28°02' W 013°31'410.6
2017-Nov-02 00:30N 27°59' W 013°34'510.8
2017-Nov-02 00:01N 27°55' W 013°38'510.7
2017-Nov-01 23:30N 27°51' W 013°42'610.5
2017-Nov-01 22:57N 27°46' W 013°46'510.4
2017-Nov-01 22:29N 27°43' W 013°50'510.3
2017-Nov-01 21:59N 27°39' W 013°54'510.2
2017-Nov-01 21:27N 27°35' W 013°58'510.1
2017-Nov-01 21:00N 27°31' W 014°02'510.1
2017-Nov-01 20:29N 27°28' W 014°06'610.2
2017-Nov-01 19:55N 27°23' W 014°10'5 9.9
2017-Nov-01 19:27N 27°20' W 014°14'5 9.9
2017-Nov-01 18:58N 27°17' W 014°17'  
Track history (hours):
 
Tides and Currents Weather Stations Pressure Air Temp Water Temp Dewpoint Dewpoint Depression Visibility Wind Speed Wind Dir Waves Ship Positions

Rossini

Last reported at 2017-Nov-11 14:05 UTC. Time now 2017-Nov-21 01:06 UTC.
Position N 24°33' W 017°02'.
Warning: this ship's position is 9 days out of date.

Length 207 m; draft 10.6 m.

Type: Ship (hazmat cat C). MMSI: 229824000.

Date/timePositionNaut miles runAvg speedWind from/ knotsBaromVisibWave heightAir tempDewpointWater temp
2017-Nov-11 14:05N 24°33' W 017°02'512.2
2017-Nov-11 13:43N 24°37' W 016°59'312.5
2017-Nov-11 13:30N 24°38' W 016°57'712.5
2017-Nov-11 12:58N 24°44' W 016°52'712.6
2017-Nov-11 12:27N 24°49' W 016°48'613.3
2017-Nov-11 11:59N 24°53' W 016°44'613.0
2017-Nov-11 11:31N 24°58' W 016°39'1912.6
2017-Nov-11 10:01N 25°12' W 016°25'011.9
2017-Nov-11 09:59N 25°12' W 016°25'612.7
2017-Nov-11 09:30N 25°17' W 016°20'1012.9
2017-Nov-11 08:44N 25°24' W 016°13'312.8
2017-Nov-11 08:29N 25°26' W 016°10'712.5
2017-Nov-11 07:53N 25°32' W 016°05'612.7
2017-Nov-11 07:26N 25°36' W 016°01'613.0
2017-Nov-11 07:00N 25°40' W 015°56'2012.6
2017-Nov-11 05:24N 25°55' W 015°41'512.5
2017-Nov-11 04:59N 25°59' W 015°37'612.6
2017-Nov-11 04:30N 26°03' W 015°32'612.7
2017-Nov-11 04:00N 26°08' W 015°28'712.7
2017-Nov-11 03:30N 26°13' W 015°23'612.9
2017-Nov-11 03:00N 26°17' W 015°18'612.7
2017-Nov-11 02:30N 26°22' W 015°13'612.7
2017-Nov-11 02:00N 26°27' W 015°08'812.6
2017-Nov-11 01:25N 26°32' W 015°03'512.4
2017-Nov-11 00:59N 26°36' W 014°58'612.4
2017-Nov-11 00:30N 26°40' W 014°54'612.4
2017-Nov-11 00:00N 26°45' W 014°49'712.4
2017-Nov-10 23:28N 26°50' W 014°44'612.4
2017-Nov-10 22:59N 26°54' W 014°40'612.6
2017-Nov-10 22:30N 26°59' W 014°35'612.6
2017-Nov-10 22:00N 27°03' W 014°30'612.6
2017-Nov-10 21:30N 27°08' W 014°26'612.6
2017-Nov-10 21:00N 27°13' W 014°21'612.5
2017-Nov-10 20:30N 27°17' W 014°16'612.4
2017-Nov-10 20:00N 27°22' W 014°11'713.0
2017-Nov-10 19:30N 27°27' W 014°07'713.4
2017-Nov-10 19:00N 27°32' W 014°02'713.2
2017-Nov-10 18:30N 27°37' W 013°57'713.4
2017-Nov-10 18:00N 27°42' W 013°52'713.2
2017-Nov-10 17:30N 27°46' W 013°46'613.0
2017-Nov-10 17:00N 27°51' W 013°41'613.0
2017-Nov-10 16:30N 27°56' W 013°36'612.9
2017-Nov-10 16:00N 28°01' W 013°32'612.7
2017-Nov-10 15:30N 28°06' W 013°27'612.6
2017-Nov-10 15:00N 28°11' W 013°23'712.4
2017-Nov-10 14:29N 28°17' W 013°20'712.7
2017-Nov-10 13:58N 28°22' W 013°16'612.9
2017-Nov-10 13:30N 28°27' W 013°12'612.8
2017-Nov-10 13:00N 28°32' W 013°08'612.9
2017-Nov-10 12:30N 28°38' W 013°04'612.8
2017-Nov-10 12:00N 28°43' W 013°00'612.7
2017-Nov-10 11:30N 28°49' W 012°56'812.2
2017-Nov-10 10:52N 28°55' W 012°51'612.4
2017-Nov-10 10:24N 28°60' W 012°47'512.4
2017-Nov-10 10:00N 29°04' W 012°44'812.5
2017-Nov-10 09:24N 29°11' W 012°40'512.3
2017-Nov-10 09:00N 29°15' W 012°37'612.6
2017-Nov-10 08:30N 29°20' W 012°33'713.1
2017-Nov-10 08:00N 29°25' W 012°29'919.0
2017-Nov-10 07:30N 29°33' W 012°23'917.4
2017-Nov-10 07:00N 29°40' W 012°17'1513.3
2017-Nov-10 05:53N 29°53' W 012°08'3413.0
2017-Nov-10 03:16N 30°21' W 011°46'412.6
2017-Nov-10 02:58N 30°25' W 011°44'913.0
2017-Nov-10 02:14N 30°32' W 011°38'313.2
2017-Nov-10 02:00N 30°35' W 011°35'613.2
2017-Nov-10 01:30N 30°40' W 011°31'1513.4
2017-Nov-10 00:23N 30°53' W 011°22'1313.5
2017-Nov-09 23:24N 31°04' W 011°14'8613.2
2017-Nov-09 16:54N 32°16' W 010°20'612.7
2017-Nov-09 16:24N 32°22' W 010°15'512.8
2017-Nov-09 16:00N 32°26' W 010°12'325 6.9
2017-Nov-07 16:55N 36°05' W 005°22'2210.3
2017-Nov-07 14:47N 36°08' W 004°55'410.4
2017-Nov-07 14:27N 36°09' W 004°51'1 2.8
2017-Nov-07 14:00N 36°09' W 004°49'4 6.7
2017-Nov-07 13:24N 36°10' W 004°44'0 0.7
2017-Nov-07 12:59N 36°10' W 004°45'1 0.8
2017-Nov-07 11:58N 36°10' W 004°46'0 0.9
2017-Nov-07 11:30N 36°10' W 004°46'1 1.0
2017-Nov-07 11:00N 36°10' W 004°47'1 1.1
2017-Nov-07 10:30N 36°10' W 004°48'1 1.3
2017-Nov-07 10:00N 36°10' W 004°48'1 1.5
2017-Nov-07 09:30N 36°10' W 004°49'1 1.6
2017-Nov-07 08:51N 36°11' W 004°50'1 1.6
2017-Nov-07 08:30N 36°11' W 004°51'1 1.6
2017-Nov-07 08:00N 36°11' W 004°52'1 1.7
2017-Nov-07 07:30N 36°11' W 004°53'1 1.8
2017-Nov-07 07:00N 36°11' W 004°54'1 1.6
2017-Nov-07 06:30N 36°11' W 004°55'1 1.3
2017-Nov-07 06:00N 36°11' W 004°56'1 1.1
2017-Nov-07 05:30N 36°11' W 004°57'  
2017-Nov-04 20:10N 36°01' W 005°15'214.1
2017-Nov-04 20:01N 36°00' W 005°18'  
2017-Nov-02 05:18N 28°41' W 013°02'2810.5
2017-Nov-02 02:39N 28°18' W 013°19'1210.7
2017-Nov-02 01:30N 28°07' W 013°27'610.7
2017-Nov-02 00:53N 28°02' W 013°31'410.6
2017-Nov-02 00:30N 27°59' W 013°34'510.8
2017-Nov-02 00:01N 27°55' W 013°38'510.7
2017-Nov-01 23:30N 27°51' W 013°42'610.5
2017-Nov-01 22:57N 27°46' W 013°46'510.4
2017-Nov-01 22:29N 27°43' W 013°50'510.3
2017-Nov-01 21:59N 27°39' W 013°54'510.2
2017-Nov-01 21:27N 27°35' W 013°58'510.1
2017-Nov-01 21:00N 27°31' W 014°02'510.1
2017-Nov-01 20:29N 27°28' W 014°06'610.2
2017-Nov-01 19:55N 27°23' W 014°10'5 9.9
2017-Nov-01 19:27N 27°20' W 014°14'5 9.9
2017-Nov-01 18:58N 27°17' W 014°17'  

Dump ship's entire track history